Time;durP1;ratioP1;P1;durP2;ratioP2;P2;SDS_P1;SDS_P2;PMS_P1;PMS_P2;Temp;Humidity;BMP_temperature;BMP_pressure;BME280_temperature;BME280_humidity;BME280_pressure;Samples;Min_cycle;Max_cycle;Signal;HPM_P1;HPM_P2
2023/09/17 00:01:50;;;;;;;5.55;5.03;;;;;;;20.06;74.84;95499.75;4699470;30;20206;-85
2023/09/17 00:04:38;;;;;;;7.18;5.72;;;;;;;19.76;76.60;95493.31;4696256;30;20709;-85
2023/09/17 00:11:04;;;;;;;5.20;4.70;;;;;;;19.73;75.99;95489.28;4678031;30;20202;-85
2023/09/17 00:17:26;;;;;;;5.60;5.10;;;;;;;19.78;75.39;95499.19;4641114;30;20212;-85
2023/09/17 00:27:53;;;;;;;6.50;5.68;;;;;;;19.72;75.12;95494.75;4602007;31;20227;-84
2023/09/17 00:31:34;;;;;;;;;;;;;;;;;;;;;
2023/09/17 00:40:13;;;;;;;6.55;5.30;;;;;;;19.71;73.87;95495.78;4967007;23;20252;-85
2023/09/17 00:46:47;;;;;;;5.70;5.15;;;;;;;19.75;73.54;95487.25;4877281;29;20585;-86
2023/09/17 00:54:01;;;;;;;5.30;4.80;;;;;;;19.85;72.61;95492.09;4820802;29;20224;-85
2023/09/17 01:54:47;;;;;;;4.85;4.45;;;;;;;19.70;71.09;95494.13;5830432;24;20196;-85
2023/09/17 01:58:11;;;;;;;;;;;;;;;;;;;;;
2023/09/17 02:19:11;;;;;;;4.15;3.75;;;;;;;19.78;68.27;95493.91;6117151;23;20833;-83
2023/09/17 02:39:34;;;;;;;4.88;4.13;;;;;;;19.40;68.91;95504.28;6224758;22;20637;-84
2023/09/17 02:49:31;;;;;;;4.25;3.85;;;;;;;19.41;68.11;95516.41;6124383;23;20174;-85
2023/09/17 03:13:46;;;;;;;3.75;3.20;;;;;;;19.47;66.90;95505.09;5820519;24;20274;-85
2023/09/17 03:17:14;;;;;;;4.30;3.33;;;;;;;19.43;66.83;95503.84;5824018;24;20625;-85
2023/09/17 03:27:05;;;;;;;4.40;3.38;;;;;;;19.42;67.13;95502.25;5819492;24;20167;-86
2023/09/17 03:51:04;;;;;;;4.70;3.03;;;;;;;19.41;66.46;95495.34;5715478;25;20217;-85
2023/09/17 04:00:54;;;;;;;4.75;2.95;;;;;;;19.20;67.23;95497.19;5727192;25;20208;-86
2023/09/17 04:19:05;;;;;;;3.88;3.33;;;;;;;18.99;68.32;95492.09;5981601;24;20933;-85
2023/09/17 04:29:14;;;;;;;4.05;3.70;;;;;;;18.87;69.10;95489.25;5817334;24;20454;-86
2023/09/17 05:36:08;;;;;;;3.70;3.35;;;;;;;19.72;65.12;95545.63;6215534;23;20188;-85
2023/09/17 05:38:41;;;;;;;5.60;3.63;;;;;;;19.88;64.57;95551.47;6188548;23;20166;-86
2023/09/17 05:41:07;;;;;;;7.43;3.42;;;;;;;19.93;64.15;95552.47;6189275;23;20177;-86
2023/09/17 05:43:33;;;;;;;4.22;2.90;;;;;;;20.08;63.52;95547.78;6188149;23;20174;-86
2023/09/17 05:46:04;;;;;;;5.72;3.40;;;;;;;20.28;63.26;95554.84;6213892;23;20221;-85
2023/09/17 05:48:30;;;;;;;4.60;3.10;;;;;;;20.31;62.94;95560.50;6189130;23;20158;-84
2023/09/17 05:50:55;;;;;;;3.35;2.90;;;;;;;20.44;62.37;95554.41;6215303;23;20242;-83
2023/09/17 05:53:20;;;;;;;5.40;3.45;;;;;;;20.62;61.20;95561.66;6187418;23;20178;-84
2023/09/17 05:55:46;;;;;;;5.82;3.70;;;;;;;20.64;61.38;95565.69;6188263;23;20166;-83
2023/09/17 05:58:11;;;;;;;4.43;2.95;;;;;;;20.74;61.15;95557.31;6213882;23;20182;-83
2023/09/17 06:00:36;;;;;;;3.63;3.00;;;;;;;20.87;60.82;95561.72;6187135;23;20178;-82
2023/09/17 06:03:02;;;;;;;5.07;2.95;;;;;;;20.90;60.74;95561.31;6187235;23;20178;-82
2023/09/17 06:05:27;;;;;;;5.80;3.10;;;;;;;20.95;60.56;95556.22;6212109;23;20166;-81
2023/09/17 06:07:52;;;;;;;3.50;3.00;;;;;;;20.99;60.00;95562.66;6188297;23;20162;-83
2023/09/17 06:10:18;;;;;;;4.93;3.08;;;;;;;20.96;60.02;95557.81;6189412;23;20154;-79
2023/09/17 06:12:43;;;;;;;5.13;2.92;;;;;;;21.12;59.82;95567.09;6213814;23;20154;-84
2023/09/17 06:15:09;;;;;;;4.38;3.53;;;;;;;21.20;59.39;95559.72;6190062;23;20162;-82
2023/09/17 06:17:34;;;;;;;4.38;3.00;;;;;;;21.27;59.41;95564.16;6188806;23;20166;-83
2023/09/17 06:19:59;;;;;;;3.42;3.13;;;;;;;21.19;59.53;95563.34;6188618;23;20189;-83
2023/09/17 06:22:25;;;;;;;4.03;3.20;;;;;;;21.25;59.29;95568.81;6187755;23;20161;-81
2023/09/17 06:24:51;;;;;;;4.88;2.90;;;;;;;21.27;59.74;95562.31;6188785;23;20515;-81
2023/09/17 06:27:16;;;;;;;3.85;2.95;;;;;;;21.21;59.69;95563.97;6188443;23;20165;-83
2023/09/17 06:29:41;;;;;;;4.45;2.85;;;;;;;21.25;59.37;95564.34;6187945;23;20157;-83
2023/09/17 06:32:08;;;;;;;5.32;3.05;;;;;;;21.26;59.82;95565.97;6212769;23;20165;-82
2023/09/17 06:34:34;;;;;;;6.45;3.50;;;;;;;21.38;58.55;95571.38;6188369;23;20261;-82
2023/09/17 06:37:00;;;;;;;3.53;2.83;;;;;;;21.40;58.37;95564.06;6188089;23;20231;-82
2023/09/17 06:39:25;;;;;;;3.22;2.60;;;;;;;21.65;58.00;95562.25;6213249;23;20170;-82
2023/09/17 06:41:50;;;;;;;4.65;3.20;;;;;;;21.72;57.65;95563.00;6211918;23;20157;-82
2023/09/17 06:44:15;;;;;;;5.57;3.20;;;;;;;21.79;57.59;95557.66;6188254;23;20232;-83
2023/09/17 06:46:41;;;;;;;3.47;2.42;;;;;;;21.89;57.89;95562.44;6213424;23;20586;-83
2023/09/17 06:49:06;;;;;;;3.13;2.72;;;;;;;21.97;57.66;95564.81;6188296;23;20169;-83
2023/09/17 06:51:31;;;;;;;5.97;3.10;;;;;;;22.11;57.47;95557.59;6214269;23;20153;-81
2023/09/17 06:53:57;;;;;;;7.07;3.10;;;;;;;22.28;56.90;95563.94;6218961;23;20176;-80
2023/09/17 06:56:23;;;;;;;6.25;3.03;;;;;;;22.30;56.50;95565.31;6216436;23;20158;-79
2023/09/17 06:58:49;;;;;;;3.50;2.83;;;;;;;22.32;56.69;95565.09;6192682;23;20165;-80
2023/09/17 07:01:14;;;;;;;4.13;2.72;;;;;;;22.44;56.18;95562.50;6192787;23;20154;-80
2023/09/17 07:03:39;;;;;;;3.88;2.90;;;;;;;22.60;56.03;95565.38;6189397;23;20178;-83
2023/09/17 07:06:05;;;;;;;4.43;2.80;;;;;;;22.70;54.97;95558.75;6212273;23;20241;-81
2023/09/17 07:08:30;;;;;;;4.35;2.40;;;;;;;22.96;54.86;95553.13;6186836;23;20166;-81
2023/09/17 07:10:56;;;;;;;6.63;2.85;;;;;;;23.23;54.28;95558.06;6212296;23;20154;-81
2023/09/17 07:13:21;;;;;;;4.03;2.55;;;;;;;23.20;54.05;95553.22;6186066;23;20230;-82
2023/09/17 07:15:47;;;;;;;4.47;2.88;;;;;;;23.34;54.69;95557.31;6187050;23;20185;-84
2023/09/17 07:18:13;;;;;;;5.80;3.33;;;;;;;23.49;54.33;95562.16;6188432;23;20154;-84
2023/09/17 07:20:38;;;;;;;4.32;2.78;;;;;;;23.44;54.64;95570.81;6212546;23;20278;-81
2023/09/17 07:23:04;;;;;;;3.65;2.53;;;;;;;23.41;54.37;95572.06;6212375;23;20177;-80
2023/09/17 07:25:29;;;;;;;4.80;3.03;;;;;;;23.25;55.90;95572.72;6211863;23;20208;-79
2023/09/17 07:27:54;;;;;;;4.45;3.10;;;;;;;23.56;53.70;95568.16;6211642;23;20154;-80
2023/09/17 07:30:20;;;;;;;5.45;2.78;;;;;;;23.52;53.84;95580.28;6183974;23;20161;-81
2023/09/17 07:32:45;;;;;;;4.15;2.60;;;;;;;23.52;53.21;95577.63;6208591;23;20190;-81
2023/09/17 07:35:11;;;;;;;4.18;3.40;;;;;;;23.50;53.56;95580.50;6209157;23;20158;-78
2023/09/17 07:37:36;;;;;;;5.20;2.47;;;;;;;23.56;53.03;95576.13;6208685;23;20186;-80
2023/09/17 07:40:04;;;;;;;6.25;2.90;;;;;;;23.45;52.89;95583.00;6183887;23;20778;-79
2023/09/17 07:42:29;;;;;;;3.15;2.78;;;;;;;23.56;52.82;95584.06;6208041;23;20166;-81
2023/09/17 07:44:54;;;;;;;5.70;3.00;;;;;;;23.55;53.08;95580.63;6209350;23;20239;-81
2023/09/17 07:47:20;;;;;;;4.28;2.70;;;;;;;23.66;52.83;95590.44;6209295;23;20162;-80
2023/09/17 07:49:45;;;;;;;3.92;2.63;;;;;;;23.68;52.88;95590.25;6210641;23;20185;-80
2023/09/17 07:52:12;;;;;;;3.40;2.40;;;;;;;23.84;52.39;95580.78;6183932;23;20162;-80
2023/09/17 07:54:39;;;;;;;3.45;2.63;;;;;;;23.90;52.72;95586.00;6210525;23;20173;-81
2023/09/17 07:57:05;;;;;;;4.18;2.40;;;;;;;24.02;52.49;95593.94;6184945;23;20181;-80
2023/09/17 07:59:30;;;;;;;4.82;3.05;;;;;;;24.18;51.28;95587.16;6186236;23;20188;-80
2023/09/17 08:01:57;;;;;;;7.75;3.25;;;;;;;24.32;52.07;95593.88;6212717;23;20166;-80
2023/09/17 08:04:22;;;;;;;4.13;2.97;;;;;;;24.28;51.81;95593.47;6213621;23;20227;-80
2023/09/17 08:06:49;;;;;;;4.47;2.63;;;;;;;24.47;51.01;95602.16;6188183;23;20158;-80
2023/09/17 08:09:14;;;;;;;4.82;2.85;;;;;;;24.44;51.93;95597.31;6188134;23;20158;-80
2023/09/17 08:11:40;;;;;;;3.65;2.90;;;;;;;24.71;50.63;95602.09;6187019;23;20552;-80
2023/09/17 08:14:05;;;;;;;3.10;2.50;;;;;;;24.73;51.49;95608.78;6212975;23;20181;-80
2023/09/17 08:16:31;;;;;;;5.50;3.17;;;;;;;24.88;50.21;95613.63;6188769;23;20288;-80
2023/09/17 08:18:56;;;;;;;3.95;3.03;;;;;;;24.69;50.17;95598.88;6214198;23;20197;-80
2023/09/17 08:21:22;;;;;;;6.93;2.92;;;;;;;24.71;51.13;95605.56;6213413;23;20154;-82
2023/09/17 08:23:47;;;;;;;6.40;3.00;;;;;;;24.80;50.81;95617.44;6187662;23;20649;-82
2023/09/17 08:26:12;;;;;;;4.10;2.83;;;;;;;24.86;51.17;95607.72;6188210;23;20153;-82
2023/09/17 08:28:41;;;;;;;6.13;3.33;;;;;;;24.94;50.85;95604.72;6213305;23;20204;-79
2023/09/17 08:31:06;;;;;;;4.20;3.00;;;;;;;24.93;50.83;95603.09;6188059;23;20154;-79
2023/09/17 08:33:31;;;;;;;3.95;2.97;;;;;;;24.79;50.48;95599.09;6186892;23;20174;-79
2023/09/17 08:35:57;;;;;;;4.15;3.30;;;;;;;24.85;49.79;95598.16;6187981;23;20201;-79
2023/09/17 08:38:22;;;;;;;5.47;3.10;;;;;;;24.92;51.31;95598.84;6187633;23;20680;-80
2023/09/17 08:40:48;;;;;;;4.25;3.13;;;;;;;25.09;50.06;95599.72;6213257;23;20316;-83
2023/09/17 08:43:14;;;;;;;5.28;3.10;;;;;;;24.97;50.52;95606.09;6186523;23;20188;-80
2023/09/17 08:45:41;;;;;;;4.95;3.13;;;;;;;25.06;50.56;95602.03;6188202;23;20162;-80
2023/09/17 08:48:07;;;;;;;3.83;2.75;;;;;;;25.35;50.85;95598.31;6215711;23;20492;-80
2023/09/17 08:50:35;;;;;;;4.65;2.95;;;;;;;25.37;50.22;95604.22;6214987;23;20146;-80
2023/09/17 08:53:01;;;;;;;5.50;3.08;;;;;;;25.40;49.60;95600.28;6187196;23;20204;-80
2023/09/17 08:55:27;;;;;;;4.22;3.15;;;;;;;25.42;49.05;95606.16;6212725;23;20579;-80
2023/09/17 08:58:01;;;;;;;4.22;3.05;;;;;;;25.47;49.67;95616.88;6187315;23;20161;-80
2023/09/17 09:00:28;;;;;;;5.35;2.95;;;;;;;25.38;50.07;95608.50;6214683;23;20166;-81
2023/09/17 09:02:56;;;;;;;6.25;3.60;;;;;;;25.64;49.83;95609.75;6212394;23;20174;-80
2023/09/17 09:05:25;;;;;;;4.68;3.30;;;;;;;25.46;49.00;95604.66;6212610;23;20574;-81
2023/09/17 09:07:51;;;;;;;5.60;3.00;;;;;;;25.68;49.10;95596.75;6213628;23;20150;-81
2023/09/17 09:10:18;;;;;;;4.35;3.15;;;;;;;25.72;49.58;95594.47;6187282;23;20475;-80
2023/09/17 09:12:45;;;;;;;4.82;2.88;;;;;;;25.62;50.12;95601.22;6187299;23;20249;-80
2023/09/17 09:15:10;;;;;;;7.32;3.60;;;;;;;25.83;49.54;95593.59;6188406;23;20165;-80
2023/09/17 09:17:36;;;;;;;4.15;3.13;;;;;;;25.76;50.01;95591.06;6188970;23;20158;-80
2023/09/17 09:20:04;;;;;;;3.28;2.85;;;;;;;25.95;49.49;95595.09;6188337;23;20241;-80
2023/09/17 09:22:30;;;;;;;6.70;3.05;;;;;;;25.93;49.46;95596.41;6187321;23;20154;-80
2023/09/17 09:24:55;;;;;;;5.63;3.05;;;;;;;26.01;48.50;95596.00;6187831;23;20215;-81
2023/09/17 09:27:20;;;;;;;4.40;3.22;;;;;;;26.08;49.02;95596.63;6214042;23;20149;-80
2023/09/17 09:29:46;;;;;;;6.45;3.53;;;;;;;26.20;49.13;95602.66;6189395;23;20181;-80
2023/09/17 09:32:12;;;;;;;10.90;3.78;;;;;;;26.24;48.23;95603.00;6213164;23;20237;-80
2023/09/17 09:34:41;;;;;;;8.90;3.58;;;;;;;26.42;46.52;95589.44;6213988;23;20169;-81
2023/09/17 09:37:08;;;;;;;12.48;3.40;;;;;;;26.45;46.01;95594.25;6213492;23;20161;-81
2023/09/17 09:39:35;;;;;;;7.55;3.00;;;;;;;26.56;46.79;95587.22;6188009;23;20184;-81
2023/09/17 09:42:01;;;;;;;9.82;3.00;;;;;;;26.81;45.79;95590.19;6189842;23;20158;-80
2023/09/17 09:44:26;;;;;;;10.10;2.90;;;;;;;26.91;44.24;95591.38;6215425;23;20170;-80
2023/09/17 09:47:02;;;;;;;7.50;3.40;;;;;;;27.08;44.97;95590.25;6215925;23;20164;-81
2023/09/17 09:49:28;;;;;;;6.53;3.30;;;;;;;26.62;46.24;95580.91;6216956;23;20141;-81
2023/09/17 09:51:55;;;;;;;5.88;3.30;;;;;;;26.93;45.04;95581.25;6214138;23;20593;-80
2023/09/17 09:54:20;;;;;;;8.82;3.47;;;;;;;26.92;45.99;95584.97;6215089;23;20197;-81
2023/09/17 09:56:47;;;;;;;7.55;3.92;;;;;;;26.77;46.68;95591.75;6190601;23;20495;-81
2023/09/17 09:59:13;;;;;;;8.40;3.20;;;;;;;27.06;46.23;95576.38;6190525;23;20158;-81
2023/09/17 10:01:40;;;;;;;8.00;2.85;;;;;;;27.31;45.18;95573.19;6188432;23;20166;-81
2023/09/17 10:04:08;;;;;;;8.00;3.63;;;;;;;27.44;45.24;95568.50;6190801;23;20174;-80
2023/09/17 10:06:35;;;;;;;7.53;3.70;;;;;;;27.73;44.57;95569.81;6214803;23;20180;-80
2023/09/17 10:09:00;;;;;;;7.13;3.22;;;;;;;27.92;44.51;95563.06;6190513;23;20208;-80
2023/09/17 10:11:26;;;;;;;9.88;3.20;;;;;;;27.96;44.58;95571.34;6215152;23;20238;-80
2023/09/17 10:13:53;;;;;;;8.75;3.38;;;;;;;27.88;45.11;95566.47;6189768;23;20528;-80
2023/09/17 10:16:19;;;;;;;6.90;3.50;;;;;;;27.86;42.86;95564.06;6190826;23;20158;-81
2023/09/17 10:18:45;;;;;;;6.05;3.35;;;;;;;27.83;44.53;95567.25;6190232;23;20158;-80
2023/09/17 10:21:11;;;;;;;6.93;3.83;;;;;;;27.82;42.99;95562.97;6189770;23;20185;-81
2023/09/17 10:23:36;;;;;;;8.82;3.03;;;;;;;27.77;42.58;95567.47;6214800;23;20174;-80
2023/09/17 10:26:03;;;;;;;7.95;3.17;;;;;;;27.81;43.35;95561.34;6215379;23;20164;-81
2023/09/17 10:28:31;;;;;;;9.23;3.17;;;;;;;27.64;44.60;95566.00;6190151;23;20185;-81
2023/09/17 10:30:56;;;;;;;6.88;3.75;;;;;;;27.61;44.38;95561.16;6190072;23;20161;-80
2023/09/17 10:33:23;;;;;;;7.53;3.20;;;;;;;27.71;43.73;95565.81;6215168;23;20173;-81
2023/09/17 10:35:49;;;;;;;6.13;3.60;;;;;;;27.76;42.77;95556.00;6190276;23;20158;-81
2023/09/17 10:38:16;;;;;;;9.45;3.28;;;;;;;27.87;42.77;95557.69;6190301;23;20220;-81
2023/09/17 10:40:42;;;;;;;8.63;3.25;;;;;;;27.62;43.89;95558.25;6215247;23;20174;-81
2023/09/17 10:43:07;;;;;;;8.75;3.30;;;;;;;27.68;43.36;95556.47;6190043;23;20227;-81
2023/09/17 10:45:37;;;;;;;7.75;3.83;;;;;;;27.79;43.08;95547.47;6190845;23;20166;-81
2023/09/17 10:48:03;;;;;;;5.68;2.85;;;;;;;27.90;41.99;95551.00;6215972;23;20158;-80
2023/09/17 10:50:31;;;;;;;6.85;2.78;;;;;;;27.70;42.80;95548.19;6215276;23;20174;-80
2023/09/17 10:52:56;;;;;;;7.53;3.25;;;;;;;27.72;42.67;95544.22;6214328;23;20173;-80
2023/09/17 10:55:22;;;;;;;6.35;3.08;;;;;;;27.96;42.75;95546.53;6216155;23;20188;-79
2023/09/17 10:57:56;;;;;;;4.38;2.85;;;;;;;28.06;40.77;95536.72;6190731;23;20158;-80
2023/09/17 11:00:22;;;;;;;7.55;3.35;;;;;;;27.68;41.15;95545.00;6217411;23;20162;-80
2023/09/17 11:02:53;;;;;;;4.75;3.28;;;;;;;27.13;43.90;95543.41;6189443;23;20178;-81
2023/09/17 11:05:20;;;;;;;7.15;2.92;;;;;;;27.30;43.86;95544.13;6190256;23;20624;-80
2023/09/17 11:07:45;;;;;;;6.95;3.70;;;;;;;27.48;42.55;95545.59;6189618;23;20158;-81
2023/09/17 11:10:11;;;;;;;9.10;3.30;;;;;;;27.44;42.69;95539.16;6189540;23;20505;-80
2023/09/17 11:12:37;;;;;;;8.07;3.90;;;;;;;27.81;43.98;95541.88;6188504;23;20154;-80
2023/09/17 11:15:02;;;;;;;6.95;3.50;;;;;;;27.93;43.67;95542.50;6217434;23;20153;-80
2023/09/17 11:17:34;;;;;;;6.95;3.50;;;;;;;28.20;43.58;95542.41;6189485;23;20184;-80
2023/09/17 11:20:00;;;;;;;6.15;3.20;;;;;;;27.90;42.19;95549.16;6214778;23;20185;-81
2023/09/17 11:22:27;;;;;;;8.95;3.75;;;;;;;27.67;42.97;95546.84;6188761;23;20176;-80
2023/09/17 11:24:53;;;;;;;8.25;3.63;;;;;;;27.11;44.38;95532.97;6189446;23;20158;-81
2023/09/17 11:27:19;;;;;;;7.63;3.40;;;;;;;27.51;43.53;95535.22;6189742;23;20169;-81
2023/09/17 11:29:45;;;;;;;8.35;3.60;;;;;;;27.79;42.60;95538.66;6214767;23;20174;-81
2023/09/17 11:32:13;;;;;;;9.57;4.05;;;;;;;27.79;42.12;95542.13;6214390;23;20150;-81
2023/09/17 11:34:41;;;;;;;7.28;3.50;;;;;;;27.82;42.48;95538.94;6215441;23;20176;-81
2023/09/17 11:37:06;;;;;;;6.85;3.33;;;;;;;28.01;42.68;95549.25;6189381;23;20509;-81
2023/09/17 11:39:35;;;;;;;8.73;3.92;;;;;;;27.73;42.27;95548.47;6190651;23;20182;-81
2023/09/17 11:42:05;;;;;;;7.35;3.17;;;;;;;27.49;42.63;95549.88;6189134;23;20161;-81
2023/09/17 11:44:33;;;;;;;6.38;3.25;;;;;;;27.38;43.37;95549.75;6214662;23;20208;-80
2023/09/17 11:46:58;;;;;;;9.70;3.30;;;;;;;27.44;42.78;95547.16;6214982;23;20157;-80
2023/09/17 11:49:24;;;;;;;10.00;3.20;;;;;;;27.28;43.89;95544.34;6216468;23;20154;-80
2023/09/17 11:51:49;;;;;;;6.63;3.40;;;;;;;27.35;44.27;95536.16;6215628;23;20288;-80
2023/09/17 11:54:30;;;;;;;8.63;3.25;;;;;;;27.21;43.66;95542.94;6215584;23;20193;-80
2023/09/17 11:56:56;;;;;;;5.57;2.92;;;;;;;27.28;43.30;95538.19;6215256;23;20134;-80
2023/09/17 11:59:22;;;;;;;7.78;3.50;;;;;;;27.38;44.37;95535.63;6214955;23;20636;-79
2023/09/17 12:01:52;;;;;;;6.28;3.33;;;;;;;27.86;43.46;95534.72;6213011;23;20161;-80
2023/09/17 12:04:19;;;;;;;10.25;3.30;;;;;;;28.03;42.40;95528.44;6215637;23;20643;-80
2023/09/17 12:06:49;;;;;;;6.22;2.70;;;;;;;28.19;41.48;95530.13;6214677;23;20147;-79
2023/09/17 12:10:00;;;;;;;6.05;2.92;;;;;;;28.00;41.90;95527.06;6214313;23;20751;-79
2023/09/17 12:12:25;;;;;;;9.07;3.40;;;;;;;28.45;41.71;95523.09;6198486;23;20165;-80
2023/09/17 12:14:51;;;;;;;10.95;3.40;;;;;;;28.49;40.02;95524.97;6189214;23;20182;-79
2023/09/17 12:17:16;;;;;;;7.25;3.70;;;;;;;28.88;39.48;95521.06;6214426;23;20245;-80
2023/09/17 12:19:42;;;;;;;7.63;3.45;;;;;;;29.04;38.84;95520.88;6214679;23;20170;-78
2023/09/17 12:22:08;;;;;;;11.35;3.63;;;;;;;29.10;39.50;95518.22;6188979;23;20166;-79
2023/09/17 12:27:29;;;;;;;6.57;3.33;;;;;;;28.77;40.03;95509.56;6153371;23;20230;-80
2023/09/17 12:29:55;;;;;;;5.70;3.08;;;;;;;28.51;39.40;95511.34;6152089;23;20531;-81
2023/09/17 12:32:24;;;;;;;5.30;2.88;;;;;;;28.97;39.53;95506.97;6152771;23;20159;-81
2023/09/17 12:34:52;;;;;;;9.02;3.65;;;;;;;28.90;38.58;95509.09;6127400;23;20179;-81
2023/09/17 12:37:18;;;;;;;7.47;3.28;;;;;;;28.61;40.12;95510.56;6152051;23;20191;-79
2023/09/17 12:39:44;;;;;;;6.95;2.80;;;;;;;28.62;38.77;95501.50;6152451;23;20182;-85
2023/09/17 12:42:10;;;;;;;4.68;3.08;;;;;;;28.79;38.63;95510.09;6151603;23;20159;-81
2023/09/17 12:44:35;;;;;;;6.13;2.85;;;;;;;28.59;38.73;95497.47;6127460;23;20616;-81
2023/09/17 12:47:00;;;;;;;10.52;3.53;;;;;;;28.58;39.49;95503.88;6151258;23;20163;-81
2023/09/17 12:49:26;;;;;;;7.10;2.53;;;;;;;28.18;40.07;95494.63;6151364;23;20155;-80
2023/09/17 12:51:52;;;;;;;4.65;2.90;;;;;;;28.57;38.73;95504.16;6150978;23;20167;-80
2023/09/17 12:54:19;;;;;;;6.43;3.20;;;;;;;29.25;37.02;95499.53;6126891;23;20213;-80
2023/09/17 12:56:45;;;;;;;5.38;2.00;;;;;;;29.35;36.11;95496.88;6151736;23;20158;-80
2023/09/17 12:59:10;;;;;;;4.93;1.85;;;;;;;29.64;34.25;95501.72;6212714;23;20166;-80
2023/09/17 13:01:50;;;;;;;4.85;1.80;;;;;;;29.34;35.08;95509.44;6212900;23;20154;-81
2023/09/17 13:04:15;;;;;;;3.67;1.98;;;;;;;29.60;33.39;95496.91;6213022;23;20177;-80
2023/09/17 13:06:40;;;;;;;3.35;1.55;;;;;;;29.83;33.75;95498.19;6212802;23;20714;-81
2023/09/17 13:09:07;;;;;;;2.78;1.73;;;;;;;29.79;34.01;95491.81;6212715;23;20150;-80
2023/09/17 13:11:33;;;;;;;3.90;1.95;;;;;;;29.52;34.82;95492.09;6213166;23;20632;-80
2023/09/17 13:13:59;;;;;;;3.72;1.85;;;;;;;29.22;34.86;95487.47;6187730;23;20637;-79
2023/09/17 13:16:24;;;;;;;4.88;2.03;;;;;;;29.10;35.89;95486.94;6188788;23;20216;-80
2023/09/17 13:18:50;;;;;;;4.72;2.05;;;;;;;28.76;35.37;95478.56;6214269;23;20150;-81
2023/09/17 13:21:16;;;;;;;4.95;2.30;;;;;;;28.82;36.21;95480.19;6188710;23;20506;-80
2023/09/17 13:23:42;;;;;;;4.40;2.10;;;;;;;29.29;35.44;95479.22;6188226;23;20181;-80
2023/09/17 13:26:08;;;;;;;5.05;2.08;;;;;;;29.45;34.68;95478.16;6213963;23;20699;-80
2023/09/17 13:28:33;;;;;;;3.85;2.08;;;;;;;29.21;34.92;95464.50;6213607;23;20150;-78
2023/09/17 13:31:03;;;;;;;2.35;1.92;;;;;;;29.18;35.40;95466.91;6212587;23;20157;-78
2023/09/17 13:33:30;;;;;;;6.88;2.42;;;;;;;29.80;34.29;95457.81;6211191;23;20256;-80
2023/09/17 13:35:55;;;;;;;4.57;2.05;;;;;;;29.80;33.88;95458.59;6214761;23;20221;-85
2023/09/17 13:38:20;;;;;;;4.90;2.15;;;;;;;29.58;34.06;95466.13;6190070;23;20226;-84
2023/09/17 13:40:47;;;;;;;5.70;2.45;;;;;;;29.51;34.32;95455.72;6190026;23;20247;-84
2023/09/17 13:43:13;;;;;;;4.90;2.65;;;;;;;29.93;34.20;95462.59;6191992;23;20173;-85
2023/09/17 13:45:49;;;;;;;7.05;2.75;;;;;;;29.87;35.06;95464.47;6192177;23;20192;-85
2023/09/17 13:48:16;;;;;;;5.97;2.22;;;;;;;29.73;34.91;95466.09;6191296;23;20153;-84
2023/09/17 13:50:41;;;;;;;3.95;2.17;;;;;;;29.45;35.03;95466.66;6217077;23;20181;-84
2023/09/17 13:53:06;;;;;;;3.03;1.85;;;;;;;29.88;34.25;95462.59;6215143;23;20181;-85
2023/09/17 13:55:32;;;;;;;3.88;2.05;;;;;;;30.11;33.53;95463.91;6215266;23;20186;-84
2023/09/17 13:57:57;;;;;;;4.00;2.30;;;;;;;30.46;33.16;95450.38;6189659;23;20243;-83
2023/09/17 14:00:22;;;;;;;5.22;4.03;;;;;;;30.17;34.44;95452.09;6191356;23;20173;-85
2023/09/17 14:02:48;;;;;;;6.03;2.63;;;;;;;30.27;34.15;95441.34;6192510;23;20178;-84
2023/09/17 14:05:13;;;;;;;4.85;3.20;;;;;;;29.71;34.67;95430.00;6188070;23;20166;-81
2023/09/17 14:07:38;;;;;;;7.18;2.50;;;;;;;29.77;34.23;95427.03;6186791;23;20161;-82
2023/09/17 14:10:04;;;;;;;7.00;2.70;;;;;;;29.63;35.41;95422.50;6211925;23;20150;-82
2023/09/17 14:12:29;;;;;;;5.65;2.10;;;;;;;29.93;34.43;95426.97;6211065;23;20598;-81
2023/09/17 14:14:55;;;;;;;3.25;2.10;;;;;;;29.75;34.86;95418.47;6211953;23;20485;-83
2023/09/17 14:17:20;;;;;;;3.22;2.25;;;;;;;29.83;33.72;95425.13;6186915;23;20162;-82
2023/09/17 14:19:46;;;;;;;6.85;2.20;;;;;;;29.56;34.23;95414.75;6186673;23;20634;-83
2023/09/17 14:22:11;;;;;;;6.53;2.42;;;;;;;29.39;35.56;95415.00;6186130;23;20158;-82
2023/09/17 14:24:36;;;;;;;6.57;2.95;;;;;;;29.39;35.42;95401.63;6211832;23;20174;-83
2023/09/17 14:27:02;;;;;;;3.20;2.63;;;;;;;29.89;35.21;95405.31;6212552;23;20489;-83
2023/09/17 14:29:27;;;;;;;4.50;1.90;;;;;;;29.88;34.44;95401.03;6213761;23;20153;-81
2023/09/17 14:31:52;;;;;;;5.95;1.92;;;;;;;29.83;34.21;95401.03;6214277;23;20154;-81
2023/09/17 14:34:18;;;;;;;5.25;2.40;;;;;;;29.77;34.28;95394.94;6214612;23;20173;-80
2023/09/17 14:36:43;;;;;;;4.55;2.00;;;;;;;29.85;33.05;95390.88;6213600;23;20201;-81
2023/09/17 14:39:08;;;;;;;3.90;2.17;;;;;;;29.57;32.90;95393.06;6213308;23;20601;-84
2023/09/17 14:41:34;;;;;;;6.38;2.25;;;;;;;29.69;32.88;95389.34;6214382;23;20157;-79
2023/09/17 14:43:59;;;;;;;3.70;2.28;;;;;;;29.48;33.27;95381.28;6191345;23;20700;-78
2023/09/17 14:46:24;;;;;;;4.80;2.10;;;;;;;29.37;33.61;95365.53;6216259;23;20642;-79
2023/09/17 14:48:52;;;;;;;2.80;1.80;;;;;;;29.38;33.44;95370.63;6193047;23;20180;-78
2023/09/17 14:51:17;;;;;;;7.38;1.90;;;;;;;29.36;34.19;95374.66;6194081;23;20213;-79
2023/09/17 14:53:42;;;;;;;4.00;2.45;;;;;;;29.10;34.49;95373.88;6219454;23;20632;-79
2023/09/17 14:56:07;;;;;;;2.97;2.25;;;;;;;28.97;34.77;95367.97;6193108;23;20162;-80
2023/09/17 14:58:33;;;;;;;5.63;2.20;;;;;;;29.27;33.78;95364.50;6217544;23;20157;-80
2023/09/17 15:00:58;;;;;;;2.88;2.00;;;;;;;29.41;34.66;95364.72;6192193;23;20220;-80
2023/09/17 15:03:28;;;;;;;3.40;1.73;;;;;;;29.41;33.67;95363.91;6216586;23;20177;-79
2023/09/17 15:05:54;;;;;;;4.88;1.95;;;;;;;29.55;32.99;95365.81;6218434;23;20145;-80
2023/09/17 15:08:19;;;;;;;4.05;1.90;;;;;;;29.61;33.13;95367.41;6189414;23;20154;-79
2023/09/17 15:10:44;;;;;;;3.42;2.00;;;;;;;29.71;32.95;95363.09;6235359;23;20169;-78
2023/09/17 15:13:10;;;;;;;2.63;1.70;;;;;;;29.86;32.67;95355.00;6239130;23;20206;-78
2023/09/17 15:15:35;;;;;;;3.67;1.90;;;;;;;29.69;32.51;95357.22;6214650;23;20145;-78
2023/09/17 15:18:01;;;;;;;4.43;1.85;;;;;;;29.62;32.46;95349.47;6239798;23;20166;-79
2023/09/17 15:20:28;;;;;;;4.22;2.10;;;;;;;29.37;33.14;95352.97;6240015;23;20178;-77
2023/09/17 15:22:53;;;;;;;5.05;2.10;;;;;;;29.26;33.24;95351.38;6199160;23;20715;-79
2023/09/17 15:25:19;;;;;;;3.53;2.00;;;;;;;29.53;33.74;95348.44;6213784;23;20272;-84
2023/09/17 15:27:44;;;;;;;3.33;1.95;;;;;;;29.52;32.24;95350.31;6213563;23;20183;-84
2023/09/17 15:30:10;;;;;;;6.18;1.90;;;;;;;29.40;33.06;95349.75;6214965;23;20192;-87
2023/09/17 15:32:39;;;;;;;3.45;2.00;;;;;;;29.28;33.61;95346.56;6187542;23;20738;-84
2023/09/17 15:35:04;;;;;;;3.58;1.80;;;;;;;29.15;33.07;95361.28;6188968;23;20233;-83
2023/09/17 15:37:29;;;;;;;5.68;2.13;;;;;;;29.05;33.14;95358.63;6214409;23;20486;-82
2023/09/17 15:39:55;;;;;;;4.75;1.52;;;;;;;29.11;33.48;95362.09;6214182;23;20501;-81
2023/09/17 15:42:20;;;;;;;2.50;1.98;;;;;;;29.00;34.03;95359.44;6212946;23;20165;-80
2023/09/17 15:44:45;;;;;;;3.33;1.92;;;;;;;28.95;33.90;95359.41;6188616;23;20182;-83
2023/09/17 15:47:11;;;;;;;3.47;2.05;;;;;;;28.89;34.06;95355.16;6214644;23;20161;-80
2023/09/17 15:49:36;;;;;;;5.63;1.92;;;;;;;28.80;34.80;95354.03;6217049;23;20157;-80
2023/09/17 15:52:03;;;;;;;6.97;1.65;;;;;;;28.73;35.08;95353.53;6216552;23;20160;-81
2023/09/17 15:54:28;;;;;;;3.38;2.17;;;;;;;28.71;35.55;95345.78;6215757;23;20177;-81
2023/09/17 15:56:53;;;;;;;4.10;2.10;;;;;;;28.82;35.42;95349.25;6191287;23;20166;-82
2023/09/17 15:59:18;;;;;;;3.75;1.95;;;;;;;28.81;35.36;95344.19;6192526;23;20166;-81
2023/09/17 16:01:44;;;;;;;3.85;2.10;;;;;;;28.67;36.10;95346.56;6216154;23;20162;-81
2023/09/17 16:04:10;;;;;;;3.10;1.90;;;;;;;28.84;35.93;95343.63;6192100;23;20181;-82
2023/09/17 16:06:35;;;;;;;2.78;2.10;;;;;;;28.70;36.56;95343.34;6191329;23;20165;-82
2023/09/17 16:09:00;;;;;;;2.95;1.90;;;;;;;28.79;36.49;95345.22;6217175;23;20165;-82
2023/09/17 16:11:26;;;;;;;3.08;1.90;;;;;;;28.91;36.03;95341.53;6215905;23;20659;-82
2023/09/17 16:13:51;;;;;;;3.65;2.08;;;;;;;28.85;35.86;95347.91;6213307;23;20178;-82
2023/09/17 16:16:16;;;;;;;4.43;2.00;;;;;;;29.07;35.70;95343.13;6188059;23;20167;-80
2023/09/17 16:18:42;;;;;;;4.57;2.00;;;;;;;29.09;35.51;95342.84;6215244;23;20154;-83